createdAt,value
2023-03-15T00:00:39.592Z,87.48
2023-03-15T00:01:39.763Z,87.89
2023-03-15T00:02:40.011Z,86.85
2023-03-15T00:03:40.147Z,86.75
2023-03-15T00:04:40.313Z,86.54
2023-03-15T00:05:40.520Z,86.96
2023-03-15T00:06:40.688Z,86.43
2023-03-15T00:07:40.868Z,86.40
2023-03-15T00:08:41.043Z,86.50
2023-03-15T00:09:41.224Z,86.75
2023-03-15T00:10:41.393Z,86.85
2023-03-15T00:11:41.594Z,86.75
2023-03-15T00:12:41.781Z,86.96
2023-03-15T00:13:41.948Z,87.06
2023-03-15T00:14:42.112Z,87.16
2023-03-15T00:15:42.303Z,86.75
2023-03-15T00:16:42.492Z,86.85
2023-03-15T00:17:42.675Z,86.54
2023-03-15T00:18:42.844Z,86.85
2023-03-15T00:19:43.030Z,87.48
2023-03-15T00:20:43.203Z,87.06
2023-03-15T00:21:43.399Z,87.06
2023-03-15T00:22:43.552Z,87.27
2023-03-15T00:23:43.727Z,87.16
2023-03-15T00:24:43.888Z,86.43
2023-03-15T00:25:44.081Z,86.12
2023-03-15T00:26:44.257Z,86.43
2023-03-15T00:27:44.462Z,86.43
2023-03-15T00:28:44.640Z,86.33
2023-03-15T00:29:44.829Z,85.71
2023-03-15T00:30:45.032Z,86.02
2023-03-15T00:31:45.203Z,86.54
2023-03-15T00:32:45.395Z,86.54
2023-03-15T00:33:45.553Z,86.33
2023-03-15T00:34:45.723Z,86.22
2023-03-15T00:35:45.930Z,86.22
2023-03-15T00:36:46.079Z,86.02
2023-03-15T00:37:46.251Z,86.54
2023-03-15T00:38:46.426Z,86.02
2023-03-15T00:39:46.600Z,85.91
2023-03-15T00:40:46.881Z,86.43
2023-03-15T00:41:46.927Z,86.85
2023-03-15T00:42:47.078Z,87.16
2023-03-15T00:43:47.252Z,86.54
2023-03-15T00:44:47.457Z,86.75
2023-03-15T00:45:47.610Z,86.75
2023-03-15T00:46:47.832Z,86.96
2023-03-15T00:47:47.977Z,86.43
2023-03-15T00:48:48.150Z,86.54
2023-03-15T00:49:48.325Z,86.43
2023-03-15T00:50:48.486Z,86.85
2023-03-15T00:51:48.659Z,86.33
2023-03-15T00:52:48.872Z,86.33
2023-03-15T00:53:49.029Z,86.65
2023-03-15T00:54:49.230Z,86.75
2023-03-15T00:55:49.340Z,86.85
2023-03-15T00:56:49.524Z,86.85
2023-03-15T00:57:49.713Z,86.47
2023-03-15T00:58:49.927Z,86.85
2023-03-15T00:59:50.103Z,86.65
2023-03-15T01:00:50.277Z,86.79
2023-03-15T01:01:50.505Z,87.16
2023-03-15T01:02:50.733Z,87.10
2023-03-15T01:03:50.870Z,87.10
2023-03-15T01:04:51.074Z,86.99
2023-03-15T01:05:51.238Z,86.68
2023-03-15T01:06:51.428Z,87.52
2023-03-15T01:07:51.621Z,86.99
2023-03-15T01:08:51.811Z,87.30
2023-03-15T01:09:51.978Z,86.99
2023-03-15T01:10:52.182Z,87.20
2023-03-15T01:11:52.367Z,86.79
2023-03-15T01:12:52.561Z,87.30
2023-03-15T01:13:52.734Z,87.52
2023-03-15T01:14:52.906Z,87.41
2023-03-15T01:15:53.090Z,87.73
2023-03-15T01:16:53.300Z,87.73
2023-03-15T01:17:53.477Z,87.20
2023-03-15T01:18:53.653Z,87.20
2023-03-15T01:19:53.825Z,86.68
2023-03-15T01:20:54.014Z,86.99
2023-03-15T01:21:54.199Z,86.99
2023-03-15T01:22:54.387Z,87.52
2023-03-15T01:23:54.571Z,87.30
2023-03-15T01:24:54.752Z,86.89
2023-03-15T01:25:54.944Z,86.89
2023-03-15T01:26:55.120Z,87.41
2023-03-15T01:27:55.301Z,87.30
2023-03-15T01:28:55.497Z,86.89
2023-03-15T01:29:55.692Z,86.99
2023-03-15T01:30:55.866Z,87.20
2023-03-15T01:31:56.100Z,87.30
2023-03-15T01:32:56.326Z,87.52
2023-03-15T01:33:56.472Z,87.62
2023-03-15T01:34:56.635Z,88.04
2023-03-15T01:35:56.842Z,87.20
2023-03-15T01:36:57.072Z,87.52
2023-03-15T01:37:57.252Z,88.04
2023-03-15T01:38:57.452Z,87.93
2023-03-15T01:39:57.630Z,88.04
2023-03-15T01:40:57.803Z,88.04
2023-03-15T01:41:57.978Z,88.24
2023-03-15T01:42:58.176Z,87.73
2023-03-15T01:43:58.347Z,88.24
2023-03-15T01:44:58.513Z,88.08
2023-03-15T01:45:58.674Z,88.29
2023-03-15T01:46:58.884Z,88.39
2023-03-15T01:47:59.129Z,88.60
2023-03-15T01:48:59.318Z,88.49
2023-03-15T01:49:59.481Z,88.39
2023-03-15T01:50:59.655Z,88.29
2023-03-15T01:51:59.824Z,88.18
2023-03-15T01:53:00.020Z,88.29
2023-03-15T01:54:00.196Z,88.39
2023-03-15T01:55:00.360Z,88.70
2023-03-15T01:56:00.549Z,88.60
2023-03-15T01:57:00.722Z,88.39
2023-03-15T01:58:00.928Z,87.97
2023-03-15T01:59:01.102Z,87.87
2023-03-15T02:00:01.302Z,88.29
2023-03-15T02:01:01.512Z,88.08
2023-03-15T02:02:01.749Z,87.97
2023-03-15T02:03:01.921Z,88.29
2023-03-15T02:04:02.102Z,88.60
2023-03-15T02:05:02.290Z,88.60
2023-03-15T02:06:02.465Z,88.60
2023-03-15T02:07:02.638Z,88.39
2023-03-15T02:08:02.819Z,88.60
2023-03-15T02:09:02.997Z,88.91
2023-03-15T02:10:03.169Z,88.60
2023-03-15T02:11:03.362Z,88.81
2023-03-15T02:12:03.610Z,88.91
2023-03-15T02:13:03.807Z,88.81
2023-03-15T02:14:03.966Z,88.81
2023-03-15T02:15:04.155Z,89.12
2023-03-15T02:16:04.344Z,88.81
2023-03-15T02:17:04.520Z,89.01
2023-03-15T02:18:04.711Z,89.22
2023-03-15T02:19:04.911Z,89.37
2023-03-15T02:20:05.066Z,89.37
2023-03-15T02:21:06.229Z,89.43
2023-03-15T02:22:05.490Z,89.32
2023-03-15T02:23:05.677Z,89.37
2023-03-15T02:24:05.871Z,89.47
2023-03-15T02:25:06.060Z,89.37
2023-03-15T02:26:06.251Z,89.37
2023-03-15T02:27:06.488Z,89.37
2023-03-15T02:28:06.680Z,89.78
2023-03-15T02:29:06.857Z,89.89
2023-03-15T02:30:07.042Z,90.10
2023-03-15T02:31:07.246Z,90.00
2023-03-15T02:32:07.409Z,90.00
2023-03-15T02:33:07.613Z,89.78
2023-03-15T02:34:07.806Z,90.10
2023-03-15T02:35:07.982Z,90.10
2023-03-15T02:36:08.253Z,90.20
2023-03-15T02:37:08.340Z,90.20
2023-03-15T02:38:08.548Z,90.10
2023-03-15T02:39:08.722Z,90.00
2023-03-15T02:40:08.924Z,89.89
2023-03-15T02:41:09.121Z,90.00
2023-03-15T02:42:09.326Z,90.00
2023-03-15T02:43:09.547Z,89.89
2023-03-15T02:44:09.770Z,90.20
2023-03-15T02:45:09.951Z,90.10
2023-03-15T02:46:10.215Z,90.10
2023-03-15T02:47:10.407Z,90.00
2023-03-15T02:48:10.597Z,90.41
2023-03-15T02:49:10.787Z,90.31
2023-03-15T02:50:10.966Z,90.10
2023-03-15T02:51:11.154Z,90.52
2023-03-15T02:52:11.349Z,90.52
2023-03-15T02:53:11.544Z,90.52
2023-03-15T02:54:11.736Z,90.72
2023-03-15T02:55:11.946Z,90.93
2023-03-15T02:56:12.107Z,90.93
2023-03-15T02:57:12.339Z,90.62
2023-03-15T02:58:12.511Z,90.45
2023-03-15T02:59:12.766Z,90.77
2023-03-15T03:00:12.876Z,90.87
2023-03-15T03:01:13.165Z,90.97
2023-03-15T03:02:13.303Z,91.18
2023-03-15T03:03:13.405Z,91.29
2023-03-15T03:04:13.629Z,90.97
2023-03-15T03:05:13.803Z,91.39
2023-03-15T03:06:14.013Z,91.39
2023-03-15T03:07:14.194Z,91.29
2023-03-15T03:08:14.374Z,91.60
2023-03-15T03:09:14.592Z,91.60
2023-03-15T03:10:14.765Z,91.39
2023-03-15T03:11:14.964Z,91.18
2023-03-15T03:12:15.155Z,90.97
2023-03-15T03:13:15.338Z,90.77
2023-03-15T03:14:15.540Z,91.18
2023-03-15T03:15:15.719Z,91.29
2023-03-15T03:16:15.934Z,91.29
2023-03-15T03:17:16.091Z,91.08
2023-03-15T03:18:16.297Z,91.18
2023-03-15T03:19:16.496Z,91.29
2023-03-15T03:20:16.693Z,91.18
2023-03-15T03:21:16.840Z,91.29
2023-03-15T03:22:17.029Z,91.08
2023-03-15T03:23:17.216Z,91.14
2023-03-15T03:24:17.402Z,91.04
2023-03-15T03:25:17.578Z,90.93
2023-03-15T03:26:17.761Z,91.25
2023-03-15T03:27:17.947Z,91.56
2023-03-15T03:28:18.117Z,91.66
2023-03-15T03:29:18.296Z,91.25
2023-03-15T03:30:18.465Z,91.04
2023-03-15T03:31:23.059Z,91.04
2023-03-15T03:32:18.859Z,90.97
2023-03-15T03:33:19.053Z,91.18
2023-03-15T03:34:19.227Z,91.08
2023-03-15T03:35:19.429Z,91.18
2023-03-15T03:36:19.583Z,91.71
2023-03-15T03:37:19.776Z,91.60
2023-03-15T03:38:19.938Z,91.71
2023-03-15T03:39:20.115Z,92.02
2023-03-15T03:40:20.291Z,91.71
2023-03-15T03:41:20.474Z,91.71
2023-03-15T03:42:20.630Z,92.12
2023-03-15T03:43:27.877Z,92.44
2023-03-15T03:44:21.002Z,92.58
2023-03-15T03:45:21.181Z,92.37
2023-03-15T03:46:21.373Z,92.47
2023-03-15T03:47:21.539Z,92.79
2023-03-15T03:48:21.720Z,92.79
2023-03-15T03:49:21.889Z,93.21
2023-03-15T03:50:22.074Z,93.10
2023-03-15T03:51:22.256Z,92.90
2023-03-15T03:52:22.434Z,92.79
2023-03-15T03:53:22.618Z,92.58
2023-03-15T03:54:22.802Z,92.69
2023-03-15T03:55:22.987Z,93.21
2023-03-15T03:56:23.171Z,93.52
2023-03-15T03:57:23.381Z,93.63
2023-03-15T03:58:23.601Z,93.63
2023-03-15T03:59:23.776Z,93.57
2023-03-15T04:00:23.951Z,93.57
2023-03-15T04:01:24.145Z,93.67
2023-03-15T04:02:24.367Z,93.77
2023-03-15T04:03:24.545Z,94.09
2023-03-15T04:04:24.738Z,94.09
2023-03-15T04:05:24.922Z,93.98
2023-03-15T04:06:25.114Z,94.09
2023-03-15T04:07:25.301Z,94.40
2023-03-15T04:08:25.489Z,94.19
2023-03-15T04:09:25.680Z,94.19
2023-03-15T04:10:25.860Z,94.29
2023-03-15T04:11:26.059Z,94.29
2023-03-15T04:12:26.277Z,94.09
2023-03-15T04:13:26.457Z,94.19
2023-03-15T04:14:26.641Z,94.34
2023-03-15T04:15:26.860Z,94.55
2023-03-15T04:16:27.096Z,94.86
2023-03-15T04:17:27.290Z,94.76
2023-03-15T04:18:27.479Z,94.55
2023-03-15T04:19:27.678Z,94.65
2023-03-15T04:20:27.868Z,94.86
2023-03-15T04:21:28.059Z,94.76
2023-03-15T04:22:28.243Z,94.86
2023-03-15T04:23:28.444Z,95.07
2023-03-15T04:24:28.643Z,94.96
2023-03-15T04:25:28.890Z,95.07
2023-03-15T04:26:29.104Z,95.38
2023-03-15T04:27:29.308Z,95.38
2023-03-15T04:28:29.506Z,95.07
2023-03-15T04:29:29.717Z,95.28
2023-03-15T04:30:29.961Z,95.38
2023-03-15T04:31:30.273Z,95.38
2023-03-15T04:32:30.378Z,95.07
2023-03-15T04:33:30.606Z,95.07
2023-03-15T04:34:30.826Z,95.17
2023-03-15T04:35:31.073Z,95.38
2023-03-15T04:36:31.240Z,95.38
2023-03-15T04:37:31.445Z,95.49
2023-03-15T04:38:31.645Z,95.70
2023-03-15T04:39:31.847Z,95.38
2023-03-15T04:40:32.076Z,95.38
2023-03-15T04:41:32.287Z,95.59
2023-03-15T04:42:32.493Z,95.49
2023-03-15T04:43:32.710Z,95.70
2023-03-15T04:44:32.924Z,95.64
2023-03-15T04:45:33.148Z,95.64
2023-03-15T04:46:33.380Z,95.95
2023-03-15T04:47:33.558Z,95.84
2023-03-15T04:48:33.759Z,95.84
2023-03-15T04:49:33.965Z,95.95
2023-03-15T04:50:34.166Z,95.84
2023-03-15T04:51:34.418Z,95.95
2023-03-15T04:52:34.877Z,95.90
2023-03-15T04:53:34.884Z,95.90
2023-03-15T04:54:35.112Z,95.80
2023-03-15T04:55:35.332Z,95.74
2023-03-15T04:56:35.571Z,95.90
2023-03-15T04:57:35.791Z,95.80
2023-03-15T04:58:36.059Z,95.80
2023-03-15T04:59:36.173Z,95.59
2023-03-15T05:00:36.424Z,95.49
2023-03-15T05:01:36.786Z,95.38
2023-03-15T05:02:36.835Z,95.38
2023-03-15T05:03:36.949Z,95.49
2023-03-15T05:04:37.228Z,95.53
2023-03-15T05:05:38.234Z,95.53
2023-03-15T05:06:37.531Z,95.70
2023-03-15T05:07:37.791Z,95.38
2023-03-15T05:08:37.975Z,95.38
2023-03-15T05:09:39.734Z,95.38
2023-03-15T05:10:38.259Z,95.38
2023-03-15T05:11:38.461Z,95.28
2023-03-15T05:12:38.661Z,95.28
2023-03-15T05:13:38.865Z,95.38
2023-03-15T05:14:39.081Z,95.28
2023-03-15T05:15:39.285Z,95.28
2023-03-15T05:16:39.521Z,95.28
2023-03-15T05:17:39.751Z,95.28
2023-03-15T05:18:39.952Z,95.28
2023-03-15T05:19:40.212Z,95.38
2023-03-15T05:20:40.340Z,95.28
2023-03-15T05:21:40.553Z,95.07
2023-03-15T05:22:40.945Z,94.96
2023-03-15T05:23:40.936Z,94.86
2023-03-15T05:24:41.151Z,94.86
2023-03-15T05:25:41.434Z,94.96
2023-03-15T05:26:41.548Z,94.86
2023-03-15T05:27:41.789Z,94.65
2023-03-15T05:28:42.228Z,94.65
2023-03-15T05:29:42.209Z,94.29
2023-03-15T05:30:42.451Z,94.19
2023-03-15T05:31:42.703Z,93.98
2023-03-15T05:32:42.957Z,93.88
2023-03-15T05:33:43.052Z,93.67
2023-03-15T05:34:43.937Z,93.67
2023-03-15T05:35:43.544Z,93.77
2023-03-15T05:36:43.691Z,93.46
2023-03-15T05:37:43.899Z,93.41
2023-03-15T05:38:45.670Z,93.31
2023-03-15T05:39:44.352Z,93.10
2023-03-15T05:40:44.504Z,92.69
2023-03-15T05:41:44.615Z,92.47
2023-03-15T05:42:45.105Z,92.37
2023-03-15T05:43:45.146Z,92.58
2023-03-15T05:44:45.299Z,92.65
2023-03-15T05:45:45.374Z,92.22
2023-03-15T05:46:45.573Z,92.02
2023-03-15T05:47:45.769Z,92.22
2023-03-15T05:48:45.980Z,92.22
2023-03-15T05:49:46.184Z,91.71
2023-03-15T05:50:46.415Z,91.50
2023-03-15T05:51:46.609Z,91.29
2023-03-15T05:52:46.807Z,91.29
2023-03-15T05:53:47.028Z,91.29
2023-03-15T05:54:47.244Z,91.08
2023-03-15T05:55:47.522Z,90.97
2023-03-15T05:56:47.596Z,91.08
2023-03-15T05:57:47.818Z,91.14
2023-03-15T05:58:48.040Z,90.93
2023-03-15T05:59:48.235Z,90.62
2023-03-15T06:00:48.443Z,90.31
2023-03-15T06:01:48.640Z,90.31
2023-03-15T06:02:48.957Z,90.00
2023-03-15T06:03:49.217Z,90.31
2023-03-15T06:04:49.230Z,89.85
2023-03-15T06:05:49.415Z,89.32
2023-03-15T06:06:49.619Z,89.22
2023-03-15T06:07:49.813Z,89.22
2023-03-15T06:08:50.050Z,88.70
2023-03-15T06:09:50.132Z,88.45
2023-03-15T06:10:50.335Z,88.45
2023-03-15T06:11:50.522Z,88.35
2023-03-15T06:12:50.745Z,88.66
2023-03-15T06:13:50.961Z,88.24
2023-03-15T06:14:51.185Z,88.04
2023-03-15T06:15:51.377Z,87.89
2023-03-15T06:16:51.636Z,87.48
2023-03-15T06:17:51.787Z,87.23
2023-03-15T06:18:51.999Z,86.33
2023-03-15T06:19:52.170Z,86.43
2023-03-15T06:20:52.364Z,86.96
2023-03-15T06:21:52.548Z,86.54
2023-03-15T06:22:52.756Z,86.75
2023-03-15T06:23:52.972Z,86.96
2023-03-15T06:24:53.152Z,87.16
2023-03-15T06:25:53.369Z,87.06
2023-03-15T06:26:53.565Z,87.58
2023-03-15T06:27:53.862Z,87.89
2023-03-15T06:28:54.012Z,87.79
2023-03-15T06:29:54.077Z,88.42
2023-03-15T06:30:54.321Z,88.52
2023-03-15T06:31:54.491Z,88.42
2023-03-15T06:32:54.768Z,88.93
2023-03-15T06:33:54.841Z,89.14
2023-03-15T06:34:55.030Z,89.56
2023-03-15T06:35:55.239Z,90.08
2023-03-15T06:36:55.413Z,89.98
2023-03-15T06:37:55.585Z,90.14
2023-03-15T06:38:55.790Z,90.25
2023-03-15T06:39:55.976Z,90.14
2023-03-15T06:40:56.147Z,90.14
2023-03-15T06:41:56.331Z,90.56
2023-03-15T06:42:56.519Z,90.45
2023-03-15T06:43:56.707Z,90.31
2023-03-15T06:44:56.891Z,90.41
2023-03-15T06:45:57.117Z,89.79
2023-03-15T06:46:57.263Z,89.17
2023-03-15T06:47:57.321Z,89.37
2023-03-15T06:48:57.513Z,89.17
2023-03-15T06:49:57.688Z,89.17
2023-03-15T06:50:57.871Z,89.48
2023-03-15T06:51:58.028Z,89.79
2023-03-15T06:52:58.239Z,89.75
2023-03-15T06:53:58.410Z,88.60
2023-03-15T06:54:58.573Z,87.92
2023-03-15T06:55:58.734Z,88.12
2023-03-15T06:56:58.900Z,88.19
2023-03-15T06:57:59.056Z,88.19
2023-03-15T06:58:59.223Z,87.77
2023-03-15T06:59:59.428Z,87.98
2023-03-15T07:00:59.672Z,87.50
2023-03-15T07:01:59.777Z,87.50
2023-03-15T07:02:59.982Z,87.92
2023-03-15T07:04:00.142Z,88.09
2023-03-15T07:05:00.312Z,87.66
2023-03-15T07:06:00.573Z,87.56
2023-03-15T07:07:00.601Z,87.35
2023-03-15T07:08:00.746Z,87.35
2023-03-15T07:09:00.903Z,87.35
2023-03-15T07:10:01.050Z,87.63
2023-03-15T07:11:01.198Z,87.32
2023-03-15T07:12:01.347Z,86.38
2023-03-15T07:13:01.493Z,86.59
2023-03-15T07:14:01.652Z,87.42
2023-03-15T07:15:01.800Z,87.63
2023-03-15T07:16:01.959Z,87.21
2023-03-15T07:17:02.074Z,86.49
2023-03-15T07:18:02.205Z,86.63
2023-03-15T07:19:02.394Z,86.83
2023-03-15T07:20:02.544Z,86.63
2023-03-15T07:21:02.690Z,87.04
2023-03-15T07:22:02.821Z,87.25
2023-03-15T07:23:02.980Z,87.25
2023-03-15T07:24:03.107Z,86.83
2023-03-15T07:25:03.250Z,86.80
2023-03-15T07:26:03.383Z,86.49
2023-03-15T07:27:03.587Z,86.38
2023-03-15T07:28:03.702Z,86.49
2023-03-15T07:29:04.120Z,85.34
2023-03-15T07:30:04.038Z,84.51
2023-03-15T07:31:04.184Z,84.72
2023-03-15T07:32:04.318Z,84.78
2023-03-15T07:33:04.518Z,84.68
2023-03-15T07:34:04.625Z,84.78
2023-03-15T07:35:05.276Z,84.27
2023-03-15T07:36:04.952Z,84.16
2023-03-15T07:37:05.144Z,84.33
2023-03-15T07:38:05.282Z,83.70
2023-03-15T07:39:05.414Z,82.77
2023-03-15T07:40:05.583Z,83.29
2023-03-15T07:41:05.716Z,83.08
2023-03-15T07:42:05.885Z,83.81
2023-03-15T07:43:06.024Z,83.50
2023-03-15T07:44:06.157Z,82.84
2023-03-15T07:45:06.279Z,83.56
2023-03-15T07:46:06.419Z,82.84
2023-03-15T07:47:06.554Z,83.22
2023-03-15T07:48:06.676Z,82.70
2023-03-15T07:49:06.803Z,82.07
2023-03-15T07:50:06.889Z,81.72
2023-03-15T07:51:07.104Z,81.30
2023-03-15T07:52:07.446Z,81.41
2023-03-15T07:53:07.437Z,81.62
2023-03-15T07:54:07.662Z,81.37
2023-03-15T07:55:08.603Z,81.16
2023-03-15T07:56:07.898Z,80.23
2023-03-15T07:57:08.042Z,80.51
2023-03-15T07:58:08.110Z,79.58
2023-03-15T07:59:08.297Z,79.88
2023-03-15T08:00:08.486Z,80.71
2023-03-15T08:01:08.745Z,80.05
2023-03-15T08:02:09.532Z,79.54
2023-03-15T08:03:09.027Z,79.37
2023-03-15T08:04:09.208Z,79.37
2023-03-15T08:05:09.390Z,79.27
2023-03-15T08:06:09.583Z,79.88
2023-03-15T08:07:09.766Z,79.16
2023-03-15T08:08:09.946Z,78.68
2023-03-15T08:09:10.110Z,78.89
2023-03-15T08:10:10.325Z,78.99
2023-03-15T08:11:10.532Z,79.06
2023-03-15T08:12:10.611Z,78.81
2023-03-15T08:13:10.819Z,78.12
2023-03-15T08:14:11.004Z,78.12
2023-03-15T08:15:11.201Z,78.27
2023-03-15T08:16:11.553Z,78.37
2023-03-15T08:17:11.846Z,78.58
2023-03-15T08:18:11.726Z,78.68
2023-03-15T08:19:11.903Z,78.64
2023-03-15T08:20:12.069Z,77.71
2023-03-15T08:21:12.284Z,78.30
2023-03-15T08:22:12.429Z,77.78
2023-03-15T08:23:12.620Z,77.84
2023-03-15T08:24:12.777Z,77.74
2023-03-15T08:25:12.958Z,76.71
2023-03-15T08:26:13.135Z,77.01
2023-03-15T08:27:14.234Z,76.71
2023-03-15T08:28:13.497Z,77.26
2023-03-15T08:29:13.686Z,76.95
2023-03-15T08:30:13.858Z,77.81
2023-03-15T08:31:14.200Z,77.92
2023-03-15T08:32:14.213Z,77.81
2023-03-15T08:33:14.265Z,78.44
2023-03-15T08:34:14.449Z,78.64
2023-03-15T08:35:15.765Z,79.47
2023-03-15T08:36:14.747Z,79.06
2023-03-15T08:37:14.956Z,79.16
2023-03-15T08:38:15.144Z,78.85
2023-03-15T08:39:15.346Z,79.58
2023-03-15T08:40:15.411Z,80.30
2023-03-15T08:41:15.576Z,80.26
2023-03-15T08:42:15.752Z,79.95
2023-03-15T08:43:15.935Z,79.33
2023-03-15T08:44:16.092Z,79.33
2023-03-15T08:45:16.257Z,78.92
2023-03-15T08:46:16.458Z,78.81
2023-03-15T08:47:16.614Z,79.37
2023-03-15T08:48:16.807Z,79.54
2023-03-15T08:49:16.978Z,79.64
2023-03-15T08:50:17.197Z,79.47
2023-03-15T08:51:17.373Z,79.78
2023-03-15T08:52:18.293Z,79.47
2023-03-15T08:53:17.723Z,79.47
2023-03-15T08:54:17.894Z,79.99
2023-03-15T08:55:18.061Z,79.37
2023-03-15T08:56:18.216Z,79.44
2023-03-15T08:57:18.397Z,79.23
2023-03-15T08:58:18.596Z,78.96
2023-03-15T08:59:29.123Z,78.44
2023-03-15T09:00:19.888Z,79.06
2023-03-15T09:01:19.046Z,78.47
2023-03-15T09:02:19.214Z,78.27
2023-03-15T09:03:19.386Z,78.89
2023-03-15T09:04:19.601Z,78.58
2023-03-15T09:05:19.711Z,78.78
2023-03-15T09:06:19.879Z,78.64
2023-03-15T09:07:20.094Z,78.12
2023-03-15T09:08:20.189Z,78.23
2023-03-15T09:09:20.272Z,77.78
2023-03-15T09:10:20.455Z,76.71
2023-03-15T09:11:20.619Z,75.84
2023-03-15T09:12:20.794Z,75.29
2023-03-15T09:13:20.972Z,74.43
2023-03-15T09:14:21.157Z,73.95
2023-03-15T09:15:21.303Z,72.47
2023-03-15T09:16:21.530Z,71.81
2023-03-15T09:17:21.588Z,71.26
2023-03-15T09:18:21.761Z,71.34
2023-03-15T09:19:21.902Z,70.28
2023-03-15T09:20:22.057Z,69.04
2023-03-15T09:21:22.190Z,68.87
2023-03-15T09:22:38.635Z,67.53
2023-03-15T09:23:23.473Z,67.97
2023-03-15T09:24:22.600Z,68.55
2023-03-15T09:25:22.764Z,70.00
2023-03-15T09:26:22.909Z,70.03
2023-03-15T09:27:23.019Z,70.68
2023-03-15T09:28:23.144Z,70.89
2023-03-15T09:29:23.272Z,71.23
2023-03-15T09:30:23.398Z,71.75
2023-03-15T09:31:23.544Z,70.72
2023-03-15T09:32:23.719Z,72.16
2023-03-15T09:33:23.770Z,70.89
2023-03-15T09:34:25.373Z,70.57
2023-03-15T09:35:23.943Z,71.09
2023-03-15T09:36:24.064Z,71.30
2023-03-15T09:37:24.184Z,71.44
2023-03-15T09:38:24.315Z,71.64
2023-03-15T09:39:24.418Z,72.81
2023-03-15T09:40:24.636Z,72.91
2023-03-15T09:41:24.641Z,72.30
2023-03-15T09:42:24.772Z,72.85
2023-03-15T09:43:24.888Z,72.53
2023-03-15T09:44:32.029Z,73.08
2023-03-15T09:45:26.809Z,74.05
2023-03-15T09:46:28.149Z,73.98
2023-03-15T09:47:25.396Z,74.60
2023-03-15T09:48:25.533Z,74.29
2023-03-15T09:49:25.678Z,74.57
2023-03-15T09:50:25.827Z,74.05
2023-03-15T09:51:25.971Z,73.94
2023-03-15T09:52:26.123Z,74.36
2023-03-15T09:53:26.256Z,73.74
2023-03-15T09:54:26.415Z,74.19
2023-03-15T09:55:26.768Z,74.60
2023-03-15T09:56:26.668Z,75.02
2023-03-15T09:57:26.801Z,75.09
2023-03-15T09:58:26.954Z,74.29
2023-03-15T09:59:27.110Z,74.05
2023-03-15T10:00:27.264Z,73.43
2023-03-15T10:01:27.494Z,72.88
2023-03-15T10:02:27.504Z,72.12
2023-03-15T10:03:27.741Z,70.65
2023-03-15T10:04:27.815Z,68.69
2023-03-15T10:05:27.947Z,66.73
2023-03-15T10:06:28.104Z,66.55
2023-03-15T10:07:28.264Z,65.86
2023-03-15T10:08:28.433Z,65.88
2023-03-15T10:09:28.575Z,65.15
2023-03-15T10:10:28.727Z,64.74
2023-03-15T10:11:28.860Z,64.67
2023-03-15T10:12:28.984Z,64.64
2023-03-15T10:13:29.116Z,63.65
2023-03-15T10:14:29.260Z,63.42
2023-03-15T10:15:29.368Z,63.42
2023-03-15T10:16:29.511Z,63.07
2023-03-15T10:17:29.588Z,63.62
2023-03-15T10:18:29.742Z,63.00
2023-03-15T10:19:29.900Z,63.21
2023-03-15T10:20:30.008Z,64.06
2023-03-15T10:21:30.101Z,65.58
2023-03-15T10:22:30.232Z,65.61
2023-03-15T10:23:30.336Z,66.87
2023-03-15T10:24:30.461Z,68.21
2023-03-15T10:25:30.583Z,68.11
2023-03-15T10:26:30.737Z,67.60
2023-03-15T10:27:30.754Z,68.04
2023-03-15T10:28:32.366Z,68.35
2023-03-15T10:29:30.927Z,68.55
2023-03-15T10:30:31.058Z,68.79
2023-03-15T10:31:41.435Z,67.86
2023-03-15T10:32:32.283Z,68.07
2023-03-15T10:33:31.387Z,68.72
2023-03-15T10:34:31.660Z,69.78
2023-03-15T10:35:31.629Z,69.96
2023-03-15T10:36:31.704Z,69.10
2023-03-15T10:37:31.816Z,67.81
2023-03-15T10:38:31.933Z,65.44
2023-03-15T10:39:32.095Z,66.54
2023-03-15T10:40:32.233Z,63.51
2023-03-15T10:41:32.336Z,60.25
2023-03-15T10:42:32.452Z,58.89
2023-03-15T10:43:32.573Z,58.28
2023-03-15T10:44:32.709Z,58.94
2023-03-15T10:45:32.927Z,56.76
2023-03-15T10:46:32.952Z,56.87
2023-03-15T10:47:32.980Z,55.79
2023-03-15T10:48:33.090Z,54.57
2023-03-15T10:49:33.170Z,54.03
2023-03-15T10:50:33.304Z,53.49
2023-03-15T10:51:33.247Z,51.73
2023-03-15T10:52:33.323Z,52.09
2023-03-15T10:53:33.394Z,49.96
2023-03-15T10:54:33.476Z,49.46
2023-03-15T10:55:33.660Z,47.13
2023-03-15T10:56:33.724Z,47.35
2023-03-15T10:57:33.657Z,45.95
2023-03-15T10:58:33.710Z,47.47
2023-03-15T10:59:33.744Z,46.44
2023-03-15T11:00:33.799Z,46.93
2023-03-15T11:01:33.804Z,48.99
2023-03-15T11:02:33.858Z,48.27
2023-03-15T11:03:33.878Z,50.15
2023-03-15T11:04:34.511Z,50.94
2023-03-15T11:05:33.894Z,52.16
2023-03-15T11:06:33.973Z,54.08
2023-03-15T11:07:33.987Z,54.74
2023-03-15T11:08:34.020Z,52.52
2023-03-15T11:09:34.087Z,52.87
2023-03-15T11:10:34.134Z,52.19
2023-03-15T11:11:34.185Z,50.99
2023-03-15T11:12:34.228Z,49.83
2023-03-15T11:13:34.272Z,48.35
2023-03-15T11:14:34.330Z,47.17
2023-03-15T11:15:34.557Z,46.45
2023-03-15T11:16:34.598Z,47.39
2023-03-15T11:17:34.477Z,47.54
2023-03-15T11:18:34.534Z,49.34
2023-03-15T11:19:34.570Z,50.81
2023-03-15T11:20:34.617Z,52.22
2023-03-15T11:21:34.674Z,53.92
2023-03-15T11:22:34.719Z,54.79
2023-03-15T11:23:34.768Z,56.30
2023-03-15T11:24:34.897Z,58.41
2023-03-15T11:25:34.826Z,59.77
2023-03-15T11:26:34.904Z,59.92
2023-03-15T11:27:34.956Z,57.10
2023-03-15T11:28:35.017Z,53.29
2023-03-15T11:29:35.187Z,52.04
2023-03-15T11:30:35.157Z,51.86
2023-03-15T11:31:35.267Z,52.01
2023-03-15T11:32:35.425Z,53.28
2023-03-15T11:33:35.363Z,54.64
2023-03-15T11:34:35.570Z,54.23
2023-03-15T11:35:35.660Z,51.78
2023-03-15T11:36:35.609Z,53.47
2023-03-15T11:37:35.683Z,54.21
2023-03-15T11:38:35.848Z,53.95
2023-03-15T11:39:35.785Z,55.64
2023-03-15T11:40:35.863Z,56.62
2023-03-15T11:41:37.404Z,57.28
2023-03-15T11:42:36.039Z,58.44
2023-03-15T11:43:36.126Z,59.59
2023-03-15T11:44:36.209Z,59.59
2023-03-15T11:45:36.327Z,60.29
2023-03-15T11:46:36.438Z,58.59
2023-03-15T11:47:36.584Z,59.26
2023-03-15T11:48:36.570Z,59.73
2023-03-15T11:49:36.657Z,60.81
2023-03-15T11:50:39.180Z,61.12
2023-03-15T11:51:37.791Z,59.98
2023-03-15T11:52:36.907Z,56.87
2023-03-15T11:53:36.991Z,54.61
2023-03-15T11:54:37.095Z,52.58
2023-03-15T11:55:37.209Z,49.37
2023-03-15T11:56:37.277Z,48.73
2023-03-15T11:57:37.422Z,49.92
2023-03-15T11:58:37.473Z,51.19
2023-03-15T11:59:37.520Z,52.34
2023-03-15T12:00:37.521Z,52.26
2023-03-15T12:01:37.581Z,53.00
2023-03-15T12:02:37.718Z,54.05
2023-03-15T12:03:37.942Z,53.03
2023-03-15T12:04:37.722Z,50.79
2023-03-15T12:05:37.822Z,50.26
2023-03-15T12:06:37.952Z,49.65
2023-03-15T12:07:38.320Z,49.25
2023-03-15T12:08:38.005Z,46.45
2023-03-15T12:09:38.098Z,45.60
2023-03-15T12:10:38.240Z,44.60
2023-03-15T12:11:38.148Z,44.89
2023-03-15T12:12:38.230Z,45.37
2023-03-15T12:13:38.268Z,44.16
2023-03-15T12:14:38.365Z,44.24
2023-03-15T12:15:38.421Z,43.98
2023-03-15T12:16:38.441Z,44.26
2023-03-15T12:17:38.490Z,43.00
2023-03-15T12:18:38.413Z,42.05
2023-03-15T12:19:38.449Z,42.46
2023-03-15T12:20:38.488Z,42.05
2023-03-15T12:21:38.523Z,42.13
2023-03-15T12:22:38.549Z,42.33
2023-03-15T12:23:38.572Z,44.59
2023-03-15T12:24:38.609Z,45.68
2023-03-15T12:25:48.928Z,44.63
2023-03-15T12:26:39.654Z,43.79
2023-03-15T12:27:38.684Z,44.95
2023-03-15T12:28:38.729Z,45.01
2023-03-15T12:29:38.688Z,43.98
2023-03-15T12:30:38.746Z,42.60
2023-03-15T12:31:38.778Z,41.93
2023-03-15T12:32:38.857Z,41.40
2023-03-15T12:33:38.758Z,40.43
2023-03-15T12:34:38.782Z,40.43
2023-03-15T12:35:38.867Z,40.56
2023-03-15T12:36:38.753Z,40.97
2023-03-15T12:37:38.773Z,40.56
2023-03-15T12:38:38.814Z,41.68
2023-03-15T12:39:38.819Z,41.46
2023-03-15T12:40:38.825Z,39.82
2023-03-15T12:41:38.859Z,40.28
2023-03-15T12:42:39.886Z,40.28
2023-03-15T12:43:38.888Z,40.59
2023-03-15T12:44:38.926Z,41.09
2023-03-15T12:45:38.908Z,40.09
2023-03-15T12:46:38.917Z,40.79
2023-03-15T12:47:38.974Z,40.47
2023-03-15T12:48:38.915Z,40.02
2023-03-15T12:49:38.936Z,39.20
2023-03-15T12:50:38.944Z,42.47
2023-03-15T12:51:38.946Z,45.12
2023-03-15T12:52:38.993Z,46.86
2023-03-15T12:53:39.047Z,47.06
2023-03-15T12:54:39.065Z,48.26